createdAt,value
2019-02-16T00:38:42.903Z,102.40
2019-02-16T00:41:31.623Z,72.90
2019-02-16T05:00:42.670Z,43.73
2019-02-16T05:03:31.390Z,48.20
2019-02-16T06:06:52.769Z,40.53
2019-02-16T06:09:34.024Z,43.07
2019-02-16T06:12:15.562Z,43.13
2019-02-16T07:12:58.275Z,46.90
2019-02-16T07:16:05.996Z,41.27
2019-02-16T07:29:11.444Z,46.97
2019-02-16T07:32:00.296Z,46.10
2019-02-16T07:34:41.443Z,45.23
2019-02-16T08:38:39.295Z,53.50
2019-02-16T08:44:49.904Z,54.13
2019-02-16T08:50:34.329Z,55.00
2019-02-16T08:53:34.452Z,54.70
2019-02-16T08:56:34.504Z,61.77
2019-02-16T08:59:34.905Z,56.40
2019-02-16T09:02:35.527Z,65.57
2019-02-16T09:06:04.671Z,53.87
2019-02-16T09:08:50.855Z,62.00
2019-02-16T09:11:43.597Z,56.17
2019-02-16T09:14:51.348Z,55.93
2019-02-16T09:20:59.582Z,52.03
2019-02-16T09:24:08.813Z,55.27
2019-02-16T09:32:15.090Z,56.70
2019-02-16T09:35:22.750Z,51.10
2019-02-16T09:38:25.614Z,57.17
2019-02-16T10:26:13.218Z,44.60
2019-02-16T10:29:20.823Z,47.87
2019-02-16T10:34:57.583Z,44.03
2019-02-16T10:52:40.898Z,44.10
2019-02-16T11:02:10.547Z,40.13
2019-02-16T11:18:17.463Z,38.87
2019-02-16T11:30:11.802Z,30.37
2019-02-16T11:53:11.796Z,21.80
2019-02-16T11:59:13.585Z,24.83
2019-02-16T12:13:57.871Z,25.23
2019-02-16T14:54:03.521Z,26.03
2019-02-16T15:42:12.386Z,34.00
2019-02-16T15:50:43.003Z,35.67
2019-02-16T15:58:44.856Z,36.67
2019-02-16T16:45:12.354Z,48.57
2019-02-16T17:34:20.836Z,46.37
2019-02-16T17:42:58.154Z,40.77
2019-02-16T17:51:28.886Z,37.80
2019-02-16T17:56:35.172Z,39.80
2019-02-16T18:15:10.936Z,43.83
2019-02-16T18:53:59.007Z,48.60
2019-02-16T18:57:06.324Z,47.83
2019-02-16T18:59:59.665Z,45.03
2019-02-16T19:03:07.341Z,43.07
2019-02-16T19:22:16.533Z,46.43
2019-02-16T19:48:05.950Z,48.53
2019-02-16T19:56:12.480Z,51.20
2019-02-16T19:59:12.196Z,45.40
2019-02-16T20:05:27.694Z,45.93
2019-02-16T20:07:56.102Z,49.97
2019-02-16T20:13:37.684Z,49.17
2019-02-16T20:16:23.706Z,52.87
2019-02-16T20:19:25.572Z,52.73
2019-02-16T20:22:33.132Z,56.10
2019-02-16T20:38:45.801Z,53.90
2019-02-16T20:41:56.230Z,49.40
2019-02-16T20:44:47.013Z,56.67
2019-02-16T20:54:01.822Z,51.97
2019-02-16T20:56:38.620Z,50.50
2019-02-16T20:59:38.669Z,52.73
2019-02-16T21:02:29.585Z,53.67
2019-02-16T21:05:29.148Z,45.10
2019-02-16T21:08:27.619Z,57.13
2019-02-16T21:11:16.395Z,50.20
2019-02-16T21:14:22.442Z,54.43
2019-02-16T21:17:24.197Z,52.13
2019-02-16T21:20:23.095Z,48.30
2019-02-16T21:23:26.337Z,51.13
2019-02-16T21:26:36.310Z,49.97
2019-02-16T21:29:17.588Z,54.33
2019-02-16T21:32:17.701Z,50.90
2019-02-16T21:35:19.005Z,53.90
2019-02-16T21:38:18.821Z,54.17
2019-02-16T21:41:21.655Z,56.47
2019-02-16T21:44:13.785Z,56.83
2019-02-16T21:47:07.016Z,57.60
2019-02-16T21:50:07.280Z,52.03
2019-02-16T21:53:06.069Z,55.63
2019-02-16T21:56:13.672Z,60.07
2019-02-16T21:59:18.875Z,60.20
2019-02-16T22:02:14.008Z,61.43
2019-02-16T22:05:15.867Z,54.87
2019-02-16T22:08:15.997Z,58.57
2019-02-16T22:11:22.918Z,55.63
2019-02-16T22:14:04.435Z,57.60
2019-02-16T22:16:45.755Z,55.97
2019-02-16T22:19:27.182Z,58.30
2019-02-16T22:22:06.695Z,55.00
2019-02-16T22:24:55.452Z,55.03
2019-02-16T22:27:34.965Z,57.00
2019-02-16T22:30:23.753Z,57.30
2019-02-16T22:33:03.537Z,49.63
2019-02-16T22:35:52.248Z,53.37
2019-02-16T22:38:33.900Z,52.77
2019-02-16T22:41:15.240Z,49.50
2019-02-16T22:43:56.613Z,53.23
2019-02-16T22:46:37.840Z,50.73
2019-02-16T22:49:07.613Z,50.27
2019-02-16T22:51:56.336Z,48.83
2019-02-16T22:54:34.728Z,49.20
2019-02-16T22:57:14.470Z,47.87
2019-02-16T23:00:03.182Z,49.70
2019-02-16T23:02:44.573Z,50.87
2019-02-16T23:05:24.157Z,52.47
2019-02-16T23:08:12.854Z,47.47
2019-02-16T23:10:53.986Z,42.53
2019-02-16T23:13:33.625Z,45.20
2019-02-16T23:16:22.397Z,41.23
2019-02-16T23:19:03.601Z,45.53
2019-02-16T23:21:43.438Z,38.30
2019-02-16T23:24:32.175Z,40.80
2019-02-16T23:27:11.914Z,42.97
2019-02-16T23:30:00.692Z,45.90
2019-02-16T23:32:40.483Z,42.93
2019-02-16T23:35:21.689Z,39.93
2019-02-16T23:38:02.533Z,45.37
2019-02-16T23:40:42.280Z,40.93
2019-02-16T23:43:31.036Z,34.63
2019-02-16T23:46:11.807Z,34.17
2019-02-16T23:48:52.819Z,33.27
2019-02-16T23:51:34.161Z,33.97
2019-02-16T23:54:14.008Z,40.67
2019-02-16T23:57:02.944Z,35.30
2019-02-16T23:59:44.048Z,39.10
